createdAt,value
2023-10-09T00:01:07.694Z,11.17
2023-10-09T00:04:09.369Z,11.22
2023-10-09T00:07:11.353Z,11.21
2023-10-09T00:10:12.992Z,11.29
2023-10-09T00:13:16.147Z,11.27
2023-10-09T00:16:18.081Z,11.32
2023-10-09T00:19:23.054Z,11.35
2023-10-09T00:22:24.632Z,11.35
2023-10-09T00:25:26.022Z,11.35
2023-10-09T00:28:28.963Z,11.26
2023-10-09T00:31:30.614Z,11.25
2023-10-09T00:34:32.478Z,11.22
2023-10-09T00:37:33.901Z,11.35
2023-10-09T00:40:35.375Z,11.35
2023-10-09T00:43:38.524Z,11.30
2023-10-09T00:46:40.062Z,11.28
2023-10-09T00:49:41.718Z,11.28
2023-10-09T00:52:43.962Z,11.31
2023-10-09T00:55:45.448Z,11.33
2023-10-09T00:58:48.421Z,11.44
2023-10-09T01:01:50.089Z,11.49
2023-10-09T01:04:51.840Z,11.53
2023-10-09T01:07:53.306Z,11.50
2023-10-09T01:10:54.745Z,11.51
2023-10-09T01:13:57.615Z,11.49
2023-10-09T01:16:59.058Z,11.53
2023-10-09T01:20:00.504Z,11.56
2023-10-09T01:23:03.443Z,11.63
2023-10-09T01:26:04.906Z,11.65
2023-10-09T01:29:06.462Z,11.63
2023-10-09T01:32:07.899Z,11.54
2023-10-09T01:35:09.359Z,11.57
2023-10-09T01:38:12.206Z,11.64
2023-10-09T01:41:13.685Z,11.65
2023-10-09T01:44:15.258Z,11.70
2023-10-09T01:47:16.770Z,11.68
2023-10-09T01:50:22.822Z,11.63
2023-10-09T01:53:25.600Z,11.59
2023-10-09T01:56:27.110Z,11.57
2023-10-09T01:59:28.680Z,11.60
2023-10-09T02:02:30.142Z,11.50
2023-10-09T02:05:31.929Z,11.46
2023-10-09T02:08:34.726Z,11.45
2023-10-09T02:11:36.194Z,11.42
2023-10-09T02:14:38.091Z,11.44
2023-10-09T02:17:39.640Z,11.49
2023-10-09T02:20:41.196Z,11.45
2023-10-09T02:23:44.307Z,11.42
2023-10-09T02:26:45.730Z,11.42
2023-10-09T02:29:47.221Z,11.46
2023-10-09T02:32:48.693Z,11.41
2023-10-09T02:35:50.153Z,11.44
2023-10-09T02:38:53.024Z,11.49
2023-10-09T02:41:54.605Z,11.52
2023-10-09T02:44:59.273Z,11.61
2023-10-09T02:48:00.824Z,11.68
2023-10-09T02:51:02.432Z,11.79
2023-10-09T02:54:05.350Z,11.81
2023-10-09T02:57:06.829Z,11.79
2023-10-09T03:00:08.708Z,11.89
2023-10-09T03:03:10.365Z,11.93
2023-10-09T03:06:12.003Z,11.96
2023-10-09T03:09:18.818Z,12.04
2023-10-09T03:12:20.371Z,12.10
2023-10-09T03:15:22.003Z,12.11
2023-10-09T03:18:23.555Z,12.19
2023-10-09T03:21:24.981Z,12.23
2023-10-09T03:24:32.361Z,12.22
2023-10-09T03:27:34.135Z,12.26
2023-10-09T03:30:35.786Z,12.27
2023-10-09T03:33:37.306Z,12.31
2023-10-09T03:36:39.967Z,12.26
2023-10-09T03:39:46.029Z,12.37
2023-10-09T03:42:47.466Z,12.31
2023-10-09T03:45:48.856Z,12.38
2023-10-09T03:48:50.649Z,12.41
2023-10-09T03:51:53.763Z,12.40
2023-10-09T03:55:00.475Z,12.45
2023-10-09T03:58:02.019Z,12.47
2023-10-09T04:01:07.749Z,12.50
2023-10-09T04:04:11.232Z,12.49
2023-10-09T04:07:16.430Z,12.50
2023-10-09T04:10:19.254Z,12.54
2023-10-09T04:13:20.720Z,12.52
2023-10-09T04:16:22.247Z,12.53
2023-10-09T04:19:23.793Z,12.53
2023-10-09T04:22:32.837Z,12.62
2023-10-09T04:25:39.269Z,12.57
2023-10-09T04:28:40.743Z,12.54
2023-10-09T04:31:42.140Z,12.54
2023-10-09T04:34:43.617Z,12.50
2023-10-09T04:37:45.010Z,12.55
2023-10-09T04:40:50.897Z,12.48
2023-10-09T04:43:52.309Z,12.51
2023-10-09T04:46:53.719Z,12.51
2023-10-09T04:49:55.226Z,12.53
2023-10-09T04:52:56.786Z,12.48
2023-10-09T04:55:59.706Z,12.50
2023-10-09T04:59:01.153Z,12.49
2023-10-09T05:02:02.665Z,12.57
2023-10-09T05:05:04.454Z,12.57
2023-10-09T05:08:09.965Z,12.58
2023-10-09T05:11:17.558Z,12.57
2023-10-09T05:14:21.202Z,12.55
2023-10-09T05:17:22.734Z,12.45
2023-10-09T05:20:24.211Z,12.44
2023-10-09T05:23:30.201Z,12.37
2023-10-09T05:26:36.186Z,12.36
2023-10-09T05:29:37.842Z,12.28
2023-10-09T05:32:39.698Z,12.28
2023-10-09T05:35:41.156Z,12.29
2023-10-09T05:38:45.579Z,12.30
2023-10-09T05:41:52.573Z,12.28
2023-10-09T05:44:54.113Z,12.39
2023-10-09T05:47:55.826Z,12.41
2023-10-09T05:50:57.396Z,12.44
2023-10-09T05:54:02.937Z,12.35
2023-10-09T05:57:08.977Z,12.31
2023-10-09T06:00:11.324Z,12.40
2023-10-09T06:03:15.863Z,12.37
2023-10-09T06:06:17.483Z,12.42
2023-10-09T06:09:19.149Z,12.52
2023-10-09T06:12:25.524Z,12.49
2023-10-09T06:15:27.072Z,12.51
2023-10-09T06:18:28.684Z,12.55
2023-10-09T06:21:30.323Z,12.58
2023-10-09T06:24:35.514Z,12.63
2023-10-09T06:27:42.515Z,12.63
2023-10-09T06:30:44.047Z,12.71
2023-10-09T06:33:45.544Z,12.72
2023-10-09T06:36:47.089Z,12.73
2023-10-09T06:39:51.940Z,12.81
2023-10-09T06:42:58.932Z,12.86
2023-10-09T06:46:00.545Z,12.79
2023-10-09T06:49:02.261Z,12.83
2023-10-09T06:52:03.894Z,12.79
2023-10-09T06:55:10.164Z,12.88
2023-10-09T06:58:17.319Z,12.89
2023-10-09T07:01:18.792Z,12.91
2023-10-09T07:04:21.924Z,12.99
2023-10-09T07:07:23.461Z,12.98
2023-10-09T07:10:29.168Z,13.02
2023-10-09T07:13:32.066Z,13.07
2023-10-09T07:16:33.597Z,13.10
2023-10-09T07:19:35.052Z,13.12
2023-10-09T07:22:37.067Z,13.14
2023-10-09T07:25:44.856Z,13.08
2023-10-09T07:28:48.070Z,13.16
2023-10-09T07:31:50.262Z,13.13
2023-10-09T07:34:51.762Z,13.15
2023-10-09T07:37:53.432Z,13.16
2023-10-09T07:40:55.485Z,13.16
2023-10-09T07:43:58.328Z,13.18
2023-10-09T07:46:59.875Z,13.16
2023-10-09T07:50:01.354Z,13.23
2023-10-09T07:53:02.846Z,13.26
2023-10-09T07:56:08.204Z,13.28
2023-10-09T07:59:14.714Z,13.32
2023-10-09T08:02:16.557Z,13.35
2023-10-09T08:05:18.061Z,13.36
2023-10-09T08:08:31.112Z,13.36
2023-10-09T08:11:37.876Z,13.48
2023-10-09T08:14:44.652Z,13.44
2023-10-09T08:17:47.074Z,13.48
2023-10-09T08:20:48.552Z,13.55
2023-10-09T08:23:50.031Z,13.59
2023-10-09T08:26:51.567Z,13.59
2023-10-09T08:29:54.534Z,13.66
2023-10-09T08:34:15.773Z,13.71
2023-10-09T08:36:17.608Z,13.81
2023-10-09T08:39:19.440Z,13.85
2023-10-09T08:42:25.985Z,13.85
2023-10-09T08:45:32.609Z,13.79
2023-10-09T08:48:34.150Z,13.70
2023-10-09T08:51:35.837Z,13.73
2023-10-09T08:54:37.392Z,13.93
2023-10-09T08:57:39.904Z,13.94
2023-10-09T09:00:42.776Z,13.97
2023-10-09T09:03:44.400Z,13.97
2023-10-09T09:06:46.044Z,14.08
2023-10-09T09:09:55.585Z,14.15
2023-10-09T09:12:57.136Z,14.25
2023-10-09T09:16:03.254Z,14.26
2023-10-09T09:19:05.311Z,14.24
2023-10-09T09:22:07.127Z,14.26
2023-10-09T09:25:08.780Z,14.11
2023-10-09T09:28:10.250Z,14.13
2023-10-09T09:31:13.540Z,14.13
2023-10-09T09:34:16.317Z,14.07
2023-10-09T09:37:21.421Z,14.13
2023-10-09T09:40:34.432Z,14.17
2023-10-09T09:43:40.149Z,14.23
2023-10-09T09:46:42.986Z,14.26
2023-10-09T09:49:44.624Z,14.41
2023-10-09T09:52:46.149Z,14.50
2023-10-09T09:55:50.588Z,14.63
2023-10-09T09:58:52.444Z,14.66
2023-10-09T10:01:56.062Z,14.80
2023-10-09T10:04:58.133Z,14.76
2023-10-09T10:07:59.820Z,14.81
2023-10-09T10:11:03.746Z,14.81
2023-10-09T10:14:05.273Z,14.76
2023-10-09T10:17:12.115Z,14.62
2023-10-09T10:20:13.784Z,14.71
2023-10-09T10:23:15.884Z,14.67
2023-10-09T10:26:18.319Z,14.72
2023-10-09T10:29:20.556Z,14.65
2023-10-09T10:32:23.348Z,14.64
2023-10-09T10:35:25.428Z,14.63
2023-10-09T10:38:27.933Z,14.61
2023-10-09T10:41:29.541Z,14.53
2023-10-09T10:44:32.597Z,14.49
2023-10-09T10:47:35.707Z,14.39
2023-10-09T10:50:39.264Z,14.48
2023-10-09T10:53:51.212Z,14.41
2023-10-09T10:56:52.894Z,14.40
2023-10-09T10:59:56.548Z,14.47
2023-10-09T11:02:59.893Z,14.44
2023-10-09T11:06:03.006Z,14.44
2023-10-09T11:09:04.541Z,14.46
2023-10-09T11:12:06.339Z,14.47
2023-10-09T11:15:08.117Z,14.50
2023-10-09T11:18:11.174Z,14.40
2023-10-09T11:21:14.615Z,14.43
2023-10-09T11:24:16.564Z,14.39
2023-10-09T11:27:18.157Z,14.47
2023-10-09T11:30:19.639Z,14.62
2023-10-09T11:33:24.829Z,14.66
2023-10-09T11:36:26.331Z,14.74
2023-10-09T11:39:28.854Z,14.87
2023-10-09T11:42:30.904Z,14.93
2023-10-09T11:45:32.444Z,14.96
2023-10-09T11:48:35.409Z,14.90
2023-10-09T11:51:36.843Z,14.92
2023-10-09T11:54:38.329Z,15.01
2023-10-09T11:57:39.868Z,15.05
2023-10-09T12:00:41.418Z,14.98
2023-10-09T12:03:44.392Z,14.91
2023-10-09T12:06:45.910Z,14.88
2023-10-09T12:09:47.417Z,14.92
2023-10-09T12:12:48.838Z,14.95
2023-10-09T12:15:50.724Z,14.88
2023-10-09T12:18:53.767Z,14.81
2023-10-09T12:21:55.244Z,14.89
2023-10-09T12:24:56.791Z,14.96
2023-10-09T12:27:58.467Z,14.95
2023-10-09T12:31:00.248Z,15.04
2023-10-09T12:34:03.162Z,14.90
2023-10-09T12:37:04.991Z,15.01
2023-10-09T12:40:14.173Z,15.04
2023-10-09T12:43:15.632Z,15.19
2023-10-09T12:46:17.785Z,15.26
2023-10-09T12:49:23.481Z,15.26
2023-10-09T12:52:25.227Z,15.23
2023-10-09T12:55:26.685Z,15.20
2023-10-09T12:58:28.332Z,15.10
2023-10-09T13:01:29.876Z,15.06
2023-10-09T13:04:35.199Z,15.08
2023-10-09T13:07:38.375Z,15.10
2023-10-09T13:10:40.017Z,15.23
2023-10-09T13:13:42.214Z,15.29
2023-10-09T13:16:43.910Z,15.47
2023-10-09T13:19:46.811Z,15.23
2023-10-09T13:22:48.345Z,15.28
2023-10-09T13:25:53.281Z,15.23
2023-10-09T13:28:55.150Z,15.27
2023-10-09T13:31:56.744Z,15.34
2023-10-09T13:34:59.711Z,15.45
2023-10-09T13:38:01.299Z,15.31
2023-10-09T13:41:02.953Z,15.42
2023-10-09T13:44:04.620Z,15.52
2023-10-09T13:47:06.594Z,15.62
2023-10-09T13:50:10.602Z,15.60
2023-10-09T13:53:12.254Z,15.65
2023-10-09T13:56:14.085Z,15.69
2023-10-09T13:59:15.605Z,15.81
2023-10-09T14:02:17.684Z,15.75
2023-10-09T14:05:20.658Z,15.71
2023-10-09T14:08:22.159Z,15.56
2023-10-09T14:11:23.644Z,15.53
2023-10-09T14:14:25.336Z,15.48
2023-10-09T14:17:27.444Z,15.44
2023-10-09T14:20:30.402Z,15.46
2023-10-09T14:23:31.937Z,15.56
2023-10-09T14:26:33.468Z,15.61
2023-10-09T14:29:35.128Z,15.55
2023-10-09T14:32:36.786Z,15.57
2023-10-09T14:35:39.756Z,15.59
2023-10-09T14:38:41.327Z,15.56
2023-10-09T14:41:42.799Z,15.54
2023-10-09T14:44:44.449Z,15.60
2023-10-09T14:47:47.436Z,15.63
2023-10-09T14:50:51.534Z,15.59
2023-10-09T14:53:56.083Z,15.62
2023-10-09T14:56:57.677Z,15.64
2023-10-09T14:59:59.710Z,15.69
2023-10-09T15:03:03.935Z,15.76
2023-10-09T15:06:13.825Z,15.77
2023-10-09T15:09:15.453Z,15.73
2023-10-09T15:12:17.004Z,15.72
2023-10-09T15:15:18.744Z,15.71
2023-10-09T15:18:20.229Z,15.66
2023-10-09T15:21:26.466Z,15.64
2023-10-09T15:24:28.063Z,15.60
2023-10-09T15:27:29.496Z,15.58
2023-10-09T15:30:30.972Z,15.67
2023-10-09T15:33:36.579Z,15.64
2023-10-09T15:36:42.609Z,15.64
2023-10-09T15:39:44.186Z,15.59
2023-10-09T15:42:45.952Z,15.54
2023-10-09T15:45:47.852Z,15.53
2023-10-09T15:48:53.022Z,15.52
2023-10-09T15:51:56.082Z,15.49
2023-10-09T15:54:59.417Z,15.57
2023-10-09T15:58:00.868Z,15.50
2023-10-09T16:01:08.544Z,15.46
2023-10-09T16:04:14.760Z,15.50
2023-10-09T16:07:17.712Z,15.45
2023-10-09T16:10:20.187Z,15.39
2023-10-09T16:13:21.709Z,15.43
2023-10-09T16:16:26.325Z,15.45
2023-10-09T16:19:27.771Z,15.44
2023-10-09T16:22:30.666Z,15.36
2023-10-09T16:25:32.228Z,15.38
2023-10-09T16:28:36.196Z,15.34
2023-10-09T16:31:41.156Z,15.32
2023-10-09T16:34:43.429Z,15.34
2023-10-09T16:37:46.592Z,15.31
2023-10-09T16:40:52.743Z,15.27
2023-10-09T16:43:54.248Z,15.27
2023-10-09T16:47:02.962Z,15.22
2023-10-09T16:50:08.202Z,15.24
2023-10-09T16:53:11.011Z,15.23
2023-10-09T16:56:12.523Z,15.18
2023-10-09T16:59:13.997Z,15.13
2023-10-09T17:02:15.683Z,15.12
2023-10-09T17:05:17.298Z,15.06
2023-10-09T17:08:20.446Z,15.07
2023-10-09T17:11:22.401Z,15.05
2023-10-09T17:14:23.853Z,15.04
2023-10-09T17:17:25.654Z,15.05
2023-10-09T17:20:27.299Z,15.08
2023-10-09T17:23:30.101Z,15.09
2023-10-09T17:26:31.638Z,15.05
2023-10-09T17:29:33.190Z,15.11
2023-10-09T17:32:34.690Z,15.14
2023-10-09T17:35:36.187Z,15.09
2023-10-09T17:38:39.041Z,15.07
2023-10-09T17:41:40.552Z,15.07
2023-10-09T17:44:41.999Z,15.09
2023-10-09T17:47:43.520Z,15.11
2023-10-09T17:50:45.480Z,15.08
2023-10-09T17:53:55.106Z,15.06
2023-10-09T17:56:56.548Z,15.06
2023-10-09T17:59:58.056Z,14.99
2023-10-09T18:02:59.642Z,14.93
2023-10-09T18:06:01.176Z,14.90
2023-10-09T18:09:06.909Z,14.88
2023-10-09T18:12:08.455Z,14.93
2023-10-09T18:15:10.289Z,14.92
2023-10-09T18:18:11.894Z,14.88
2023-10-09T18:21:13.403Z,14.89
2023-10-09T18:24:19.473Z,14.86
2023-10-09T18:27:21.097Z,14.83
2023-10-09T18:30:22.738Z,14.83
2023-10-09T18:33:24.429Z,14.83
2023-10-09T18:36:28.832Z,14.74
2023-10-09T18:39:38.305Z,14.77
2023-10-09T18:42:39.752Z,14.74
2023-10-09T18:45:41.239Z,14.70
2023-10-09T18:48:42.696Z,14.71
2023-10-09T18:51:46.957Z,14.67
2023-10-09T18:54:53.980Z,14.64
2023-10-09T18:57:56.917Z,14.62
2023-10-09T19:00:58.455Z,14.53
2023-10-09T19:04:00.252Z,14.59
2023-10-09T19:07:05.047Z,14.53
2023-10-09T19:10:14.592Z,14.49
2023-10-09T19:13:16.978Z,14.51
2023-10-09T19:16:18.595Z,14.50
2023-10-09T19:19:20.205Z,14.49
2023-10-09T19:22:21.623Z,14.56
2023-10-09T19:25:27.820Z,14.56
2023-10-09T19:28:29.714Z,14.58
2023-10-09T19:31:31.206Z,14.57
2023-10-09T19:34:32.805Z,14.54
2023-10-09T19:37:34.330Z,14.55
2023-10-09T19:40:41.351Z,14.51
2023-10-09T19:43:43.055Z,14.51
2023-10-09T19:46:44.619Z,14.46
2023-10-09T19:49:47.522Z,14.44
2023-10-09T19:52:49.476Z,14.44
2023-10-09T19:55:52.506Z,14.43
2023-10-09T19:58:54.100Z,14.41
2023-10-09T20:01:55.982Z,14.40
2023-10-09T20:04:58.001Z,14.35
2023-10-09T20:07:59.475Z,14.34
2023-10-09T20:11:08.881Z,14.33
2023-10-09T20:14:10.550Z,14.36
2023-10-09T20:17:12.496Z,14.36
2023-10-09T20:20:14.416Z,14.34
2023-10-09T20:23:19.409Z,14.37
2023-10-09T20:26:22.265Z,14.39
2023-10-09T20:29:23.786Z,14.35
2023-10-09T20:32:25.346Z,14.33
2023-10-09T20:35:26.894Z,14.34
2023-10-09T20:38:28.318Z,14.35
2023-10-09T20:41:34.720Z,14.41
2023-10-09T20:44:36.228Z,14.45
2023-10-09T20:47:37.972Z,14.41
2023-10-09T20:50:41.356Z,14.37
2023-10-09T20:53:42.811Z,14.37
2023-10-09T20:56:48.615Z,14.37
2023-10-09T20:59:50.120Z,14.33
2023-10-09T21:02:52.340Z,14.38
2023-10-09T21:05:54.101Z,14.33
2023-10-09T21:08:59.045Z,14.27
2023-10-09T21:12:06.330Z,14.29
2023-10-09T21:15:08.373Z,14.24
2023-10-09T21:18:11.992Z,14.13
2023-10-09T21:21:14.204Z,14.17
2023-10-09T21:24:16.073Z,14.04
2023-10-09T21:27:22.280Z,14.00
2023-10-09T21:30:23.919Z,13.91
2023-10-09T21:33:25.389Z,13.89
2023-10-09T21:36:27.115Z,13.97
2023-10-09T21:39:28.569Z,13.96
2023-10-09T21:42:34.874Z,13.89
2023-10-09T21:45:37.034Z,13.88
2023-10-09T21:48:38.619Z,13.96
2023-10-09T21:51:40.101Z,13.97
2023-10-09T21:54:46.130Z,13.95
2023-10-09T21:57:55.284Z,13.98
2023-10-09T22:00:56.843Z,14.04
2023-10-09T22:03:58.405Z,13.98
2023-10-09T22:07:00.120Z,14.02
2023-10-09T22:10:01.563Z,14.00
2023-10-09T22:13:08.498Z,14.00
2023-10-09T22:16:09.993Z,13.93
2023-10-09T22:19:23.303Z,13.92
2023-10-09T22:22:25.220Z,13.95
2023-10-09T22:25:26.648Z,13.89
2023-10-09T22:28:29.548Z,13.82
2023-10-09T22:31:31.155Z,13.80
2023-10-09T22:34:33.027Z,13.76
2023-10-09T22:37:34.488Z,13.78
2023-10-09T22:40:36.077Z,13.80
2023-10-09T22:43:38.895Z,13.81
2023-10-09T22:46:40.323Z,13.86
2023-10-09T22:49:41.917Z,13.76
2023-10-09T22:52:43.341Z,13.76
2023-10-09T22:55:48.634Z,13.77
2023-10-09T22:58:54.791Z,13.87
2023-10-09T23:01:56.579Z,13.83
2023-10-09T23:04:58.205Z,13.75
2023-10-09T23:07:59.797Z,13.81
2023-10-09T23:11:04.133Z,13.81
2023-10-09T23:14:10.379Z,13.82
2023-10-09T23:17:12.139Z,13.84
2023-10-09T23:20:13.734Z,13.79
2023-10-09T23:23:15.402Z,13.84
2023-10-09T23:26:23.987Z,13.85
2023-10-09T23:29:27.029Z,13.82
2023-10-09T23:32:28.571Z,13.78
2023-10-09T23:35:30.101Z,13.80
2023-10-09T23:38:31.605Z,13.74
2023-10-09T23:41:36.892Z,13.81
2023-10-09T23:44:46.422Z,13.79
2023-10-09T23:47:48.090Z,13.89
2023-10-09T23:50:49.542Z,13.89
2023-10-09T23:53:51.035Z,13.77
2023-10-09T23:56:52.719Z,13.78
2023-10-09T23:59:59.612Z,13.83
